createdAt,value
2022-10-29T00:00:12.254Z,99966.09
2022-10-29T00:01:14.546Z,99972.34
2022-10-29T00:02:16.795Z,99960.88
2022-10-29T00:03:19.518Z,99963.34
2022-10-29T00:04:21.750Z,99954.09
2022-10-29T00:05:24.003Z,99970.06
2022-10-29T00:06:26.194Z,99964.19
2022-10-29T00:07:28.398Z,99963.97
2022-10-29T00:08:32.817Z,99966.28
2022-10-29T00:09:35.501Z,99949.38
2022-10-29T00:10:37.726Z,99953.66
2022-10-29T00:11:40.158Z,99950.63
2022-10-29T00:12:42.335Z,99947.94
2022-10-29T00:13:45.602Z,99951.06
2022-10-29T00:14:47.724Z,99949.16
2022-10-29T00:15:49.874Z,99952.59
2022-10-29T00:16:52.030Z,99945.34
2022-10-29T00:17:54.572Z,99944.28
2022-10-29T00:18:58.042Z,99948.66
2022-10-29T00:20:00.407Z,99953.75
2022-10-29T00:21:05.759Z,99959.78
2022-10-29T00:22:08.026Z,99960.31
2022-10-29T00:23:10.275Z,99962.66
2022-10-29T00:24:12.482Z,99962.47
2022-10-29T00:25:14.671Z,99953.44
2022-10-29T00:26:18.935Z,99968.47
2022-10-29T00:27:21.126Z,99963.19
2022-10-29T00:28:23.383Z,99966.38
2022-10-29T00:29:25.558Z,99956.81
2022-10-29T00:30:27.761Z,99956.31
2022-10-29T00:31:31.089Z,99954.78
2022-10-29T00:32:33.344Z,99950.69
2022-10-29T00:33:35.521Z,99951.13
2022-10-29T00:34:38.105Z,99956.03
2022-10-29T00:35:40.247Z,99950.59
2022-10-29T00:36:42.400Z,99951.34
2022-10-29T00:37:44.688Z,99950.13
2022-10-29T00:38:46.846Z,99950.00
2022-10-29T00:39:49.052Z,99949.69
2022-10-29T00:40:51.248Z,99944.06
2022-10-29T00:41:53.383Z,99953.38
2022-10-29T00:43:12.377Z,99947.59
2022-10-29T00:44:14.466Z,99950.16
2022-10-29T00:45:20.934Z,99949.09
2022-10-29T00:46:31.370Z,99946.47
2022-10-29T00:47:37.643Z,99949.16
2022-10-29T00:48:45.476Z,99950.69
2022-10-29T00:49:53.048Z,99952.53
2022-10-29T00:50:57.845Z,99950.59
2022-10-29T00:52:04.181Z,99950.31
2022-10-29T00:53:06.349Z,99951.91
2022-10-29T00:54:11.301Z,99951.72
2022-10-29T00:55:15.746Z,99948.00
2022-10-29T00:56:18.199Z,99955.03
2022-10-29T00:57:36.274Z,99954.75
2022-10-29T00:58:39.214Z,99963.13
2022-10-29T00:59:43.006Z,99958.59
2022-10-29T01:00:45.239Z,99956.50
2022-10-29T01:01:49.016Z,99955.88
2022-10-29T01:02:51.359Z,99958.28
2022-10-29T01:03:55.396Z,99955.50
2022-10-29T01:04:57.771Z,99959.78
2022-10-29T01:06:02.062Z,99955.41
2022-10-29T01:07:05.047Z,99956.09
2022-10-29T01:08:07.703Z,99956.22
2022-10-29T01:09:09.868Z,99961.25
2022-10-29T01:10:12.932Z,99952.28
2022-10-29T01:11:36.106Z,99948.00
2022-10-29T01:13:02.415Z,99956.31
2022-10-29T01:14:23.048Z,99959.44
2022-10-29T01:15:37.109Z,99957.34
2022-10-29T01:17:09.359Z,99955.97
2022-10-29T01:18:21.163Z,99960.50
2022-10-29T01:19:57.575Z,99951.75
2022-10-29T01:21:24.203Z,99955.25
2022-10-29T01:22:55.841Z,99951.69
2022-10-29T01:24:11.730Z,99955.13
2022-10-29T01:25:35.213Z,99951.63
2022-10-29T01:27:11.660Z,99948.25
2022-10-29T01:28:22.471Z,99951.00
2022-10-29T01:29:58.366Z,99953.34
2022-10-29T01:31:19.182Z,99946.06
2022-10-29T01:32:39.783Z,99948.00
2022-10-29T01:33:53.724Z,99950.03
2022-10-29T01:35:04.732Z,99948.19
2022-10-29T01:36:12.921Z,99942.88
2022-10-29T01:37:20.657Z,99934.28
2022-10-29T01:38:28.406Z,99934.53
2022-10-29T01:39:45.470Z,99927.69
2022-10-29T01:41:08.625Z,99929.66
2022-10-29T01:42:41.581Z,99925.56
2022-10-29T01:44:00.335Z,99919.53
2022-10-29T01:45:11.434Z,99920.06
2022-10-29T01:46:24.649Z,99928.78
2022-10-29T01:47:32.706Z,99923.22
2022-10-29T01:48:39.569Z,99917.75
2022-10-29T01:49:45.536Z,99918.50
2022-10-29T01:50:52.566Z,99913.06
2022-10-29T01:51:56.726Z,99921.06
2022-10-29T01:52:59.026Z,99921.53
2022-10-29T01:54:05.947Z,99918.63
2022-10-29T01:55:08.875Z,99921.53
2022-10-29T01:56:11.026Z,99913.28
2022-10-29T01:57:25.064Z,99920.81
2022-10-29T01:58:27.756Z,99912.75
2022-10-29T01:59:43.195Z,99918.63
2022-10-29T02:01:24.459Z,99904.25
2022-10-29T02:02:47.274Z,99911.38
2022-10-29T02:04:21.600Z,99900.50
2022-10-29T02:05:45.459Z,99904.72
2022-10-29T02:07:03.869Z,99907.09
2022-10-29T02:08:44.310Z,99902.25
2022-10-29T02:09:57.125Z,99905.47
2022-10-29T02:11:08.988Z,99912.09
2022-10-29T02:12:24.034Z,99911.69
2022-10-29T02:13:31.970Z,99911.69
2022-10-29T02:14:40.868Z,99908.03
2022-10-29T02:15:48.317Z,99908.03
2022-10-29T02:16:51.102Z,99903.41
2022-10-29T02:17:53.550Z,99901.81
2022-10-29T02:18:57.948Z,99903.41
2022-10-29T02:20:08.899Z,99902.34
2022-10-29T02:21:11.304Z,99902.81
2022-10-29T02:22:13.515Z,99905.59
2022-10-29T02:23:16.485Z,99908.97
2022-10-29T02:24:18.611Z,99911.56
2022-10-29T02:25:21.524Z,99915.00
2022-10-29T02:26:23.957Z,99908.13
2022-10-29T02:27:26.139Z,99901.88
2022-10-29T02:28:28.324Z,99909.66
2022-10-29T02:29:30.504Z,99910.50
2022-10-29T02:30:33.309Z,99906.22
2022-10-29T02:31:36.237Z,99907.09
2022-10-29T02:32:38.462Z,99905.13
2022-10-29T02:33:40.686Z,99911.31
2022-10-29T02:34:42.849Z,99915.09
2022-10-29T02:35:45.061Z,99902.81
2022-10-29T02:36:47.271Z,99916.53
2022-10-29T02:37:49.588Z,99910.19
2022-10-29T02:38:51.771Z,99911.84
2022-10-29T02:39:53.967Z,99915.13
2022-10-29T02:40:56.153Z,99915.19
2022-10-29T02:41:58.574Z,99911.78
2022-10-29T02:43:00.810Z,99912.31
2022-10-29T02:44:03.004Z,99909.69
2022-10-29T02:45:05.777Z,99906.97
2022-10-29T02:46:15.991Z,99911.81
2022-10-29T02:47:18.234Z,99899.19
2022-10-29T02:48:21.116Z,99908.31
2022-10-29T02:49:23.282Z,99907.28
2022-10-29T02:50:25.482Z,99899.97
2022-10-29T02:51:27.661Z,99901.50
2022-10-29T02:52:29.880Z,99897.81
2022-10-29T02:53:32.142Z,99893.78
2022-10-29T02:54:34.631Z,99893.78
2022-10-29T02:55:36.830Z,99897.13
2022-10-29T02:56:39.039Z,99894.63
2022-10-29T02:57:44.387Z,99895.09
2022-10-29T02:58:46.591Z,99889.94
2022-10-29T02:59:48.763Z,99903.00
2022-10-29T03:00:51.847Z,99900.19
2022-10-29T03:01:54.200Z,99888.84
2022-10-29T03:02:56.827Z,99896.97
2022-10-29T03:03:59.223Z,99901.25
2022-10-29T03:05:01.399Z,99889.47
2022-10-29T03:06:03.864Z,99895.50
2022-10-29T03:07:06.345Z,99897.78
2022-10-29T03:08:08.744Z,99895.91
2022-10-29T03:09:11.160Z,99906.25
2022-10-29T03:10:13.307Z,99902.81
2022-10-29T03:11:15.471Z,99898.09
2022-10-29T03:12:17.639Z,99897.09
2022-10-29T03:13:19.809Z,99899.63
2022-10-29T03:14:21.992Z,99898.44
2022-10-29T03:15:24.166Z,99894.19
2022-10-29T03:16:26.322Z,99894.34
2022-10-29T03:17:28.496Z,99890.06
2022-10-29T03:18:30.809Z,99891.00
2022-10-29T03:19:32.983Z,99889.38
2022-10-29T03:20:35.163Z,99889.50
2022-10-29T03:21:37.938Z,99883.16
2022-10-29T03:22:40.177Z,99874.38
2022-10-29T03:23:42.358Z,99884.09
2022-10-29T03:24:44.532Z,99891.81
2022-10-29T03:25:55.756Z,99880.94
2022-10-29T03:26:58.554Z,99885.63
2022-10-29T03:28:00.716Z,99885.97
2022-10-29T03:29:02.940Z,99885.19
2022-10-29T03:30:05.750Z,99884.59
2022-10-29T03:31:07.965Z,99885.03
2022-10-29T03:32:10.104Z,99879.50
2022-10-29T03:33:12.382Z,99876.38
2022-10-29T03:34:14.798Z,99869.56
2022-10-29T03:35:17.045Z,99875.41
2022-10-29T03:36:19.351Z,99874.66
2022-10-29T03:37:21.562Z,99876.19
2022-10-29T03:38:24.076Z,99878.44
2022-10-29T03:39:26.292Z,99877.44
2022-10-29T03:40:28.497Z,99871.72
2022-10-29T03:41:30.834Z,99868.94
2022-10-29T03:42:33.000Z,99864.72
2022-10-29T03:43:36.962Z,99859.25
2022-10-29T03:44:39.134Z,99857.72
2022-10-29T03:45:41.286Z,99868.88
2022-10-29T03:46:43.445Z,99870.84
2022-10-29T03:47:45.628Z,99866.84
2022-10-29T03:48:50.137Z,99858.00
2022-10-29T03:49:52.672Z,99858.59
2022-10-29T03:51:01.317Z,99865.53
2022-10-29T03:52:03.515Z,99860.78
2022-10-29T03:53:05.763Z,99865.06
2022-10-29T03:54:07.972Z,99860.19
2022-10-29T03:55:10.148Z,99864.47
2022-10-29T03:56:12.388Z,99859.44
2022-10-29T03:57:14.654Z,99863.22
2022-10-29T03:58:17.264Z,99864.94
2022-10-29T03:59:19.431Z,99870.72
2022-10-29T04:00:21.772Z,99862.88
2022-10-29T04:01:24.087Z,99865.34
2022-10-29T04:02:26.769Z,99871.19
2022-10-29T04:03:31.345Z,99870.19
2022-10-29T04:04:33.517Z,99876.16
2022-10-29T04:05:35.740Z,99876.16
2022-10-29T04:06:37.996Z,99869.81
2022-10-29T04:07:40.180Z,99881.47
2022-10-29T04:08:42.869Z,99881.59
2022-10-29T04:09:45.181Z,99880.22
2022-10-29T04:10:49.084Z,99885.19
2022-10-29T04:11:51.219Z,99882.88
2022-10-29T04:12:53.463Z,99882.75
2022-10-29T04:13:55.892Z,99878.81
2022-10-29T04:14:58.060Z,99888.13
2022-10-29T04:16:00.301Z,99886.94
2022-10-29T04:17:02.512Z,99884.63
2022-10-29T04:18:04.761Z,99885.22
2022-10-29T04:19:07.186Z,99879.63
2022-10-29T04:20:21.060Z,99885.69
2022-10-29T04:23:25.414Z,99884.63
2022-10-29T04:28:43.015Z,99880.69
2022-10-29T04:29:45.384Z,99885.81
2022-10-29T04:30:47.599Z,99883.06
2022-10-29T04:31:49.946Z,99884.59
2022-10-29T04:32:56.157Z,99877.63
2022-10-29T04:33:58.599Z,99879.25
2022-10-29T04:35:01.021Z,99883.66
2022-10-29T04:36:04.551Z,99881.91
2022-10-29T04:37:06.825Z,99885.41
2022-10-29T04:38:10.409Z,99887.34
2022-10-29T04:39:12.596Z,99882.78
2022-10-29T04:40:14.825Z,99886.50
2022-10-29T04:41:17.108Z,99878.63
2022-10-29T04:42:19.275Z,99872.66
2022-10-29T04:43:21.479Z,99866.84
2022-10-29T04:44:23.652Z,99880.09
2022-10-29T04:45:25.866Z,99875.50
2022-10-29T04:46:28.546Z,99879.44
2022-10-29T04:47:30.723Z,99885.47
2022-10-29T04:48:33.012Z,99887.06
2022-10-29T04:49:35.258Z,99884.59
2022-10-29T04:50:38.347Z,99882.78
2022-10-29T04:51:40.508Z,99886.94
2022-10-29T04:52:42.816Z,99887.78
2022-10-29T04:53:44.969Z,99891.22
2022-10-29T04:54:47.158Z,99892.13
2022-10-29T04:55:49.346Z,99897.41
2022-10-29T04:56:51.572Z,99885.81
2022-10-29T04:57:54.252Z,99885.69
2022-10-29T04:58:56.646Z,99896.06
2022-10-29T04:59:58.834Z,99898.63
2022-10-29T05:01:02.770Z,99887.88
2022-10-29T05:02:05.110Z,99894.91
2022-10-29T05:03:07.247Z,99890.53
2022-10-29T05:04:09.470Z,99892.09
2022-10-29T05:05:11.637Z,99883.47
2022-10-29T05:06:13.821Z,99884.19
2022-10-29T05:07:16.083Z,99886.06
2022-10-29T05:08:18.243Z,99886.25
2022-10-29T05:09:20.437Z,99883.66
2022-10-29T05:10:22.632Z,99884.53
2022-10-29T05:11:24.815Z,99887.22
2022-10-29T05:12:26.998Z,99888.34
2022-10-29T05:13:29.181Z,99886.84
2022-10-29T05:14:31.320Z,99883.19
2022-10-29T05:15:34.303Z,99885.97
2022-10-29T05:16:36.472Z,99874.38
2022-10-29T05:17:38.770Z,99880.38
2022-10-29T05:18:40.940Z,99885.53
2022-10-29T05:19:43.080Z,99882.03
2022-10-29T05:20:45.285Z,99881.31
2022-10-29T05:21:47.568Z,99882.09
2022-10-29T05:22:49.763Z,99886.63
2022-10-29T05:23:53.506Z,99881.25
2022-10-29T05:24:55.803Z,99881.31
2022-10-29T05:25:58.022Z,99890.06
2022-10-29T05:27:00.308Z,99889.22
2022-10-29T05:28:13.640Z,99882.03
2022-10-29T05:29:15.888Z,99884.72
2022-10-29T05:30:18.051Z,99883.00
2022-10-29T05:31:20.277Z,99881.25
2022-10-29T05:32:22.536Z,99887.50
2022-10-29T05:33:25.001Z,99885.72
2022-10-29T05:34:27.187Z,99888.16
2022-10-29T05:35:29.377Z,99891.84
2022-10-29T05:36:31.561Z,99885.75
2022-10-29T05:37:33.747Z,99894.69
2022-10-29T05:38:36.229Z,99893.97
2022-10-29T05:39:41.523Z,99898.31
2022-10-29T05:40:45.187Z,99893.31
2022-10-29T05:41:47.671Z,99896.94
2022-10-29T05:42:50.367Z,99897.81
2022-10-29T05:43:55.403Z,99898.81
2022-10-29T05:44:57.627Z,99904.88
2022-10-29T05:46:02.442Z,99904.19
2022-10-29T05:47:07.528Z,99897.41
2022-10-29T05:49:19.376Z,99902.66
2022-10-29T05:50:22.090Z,99901.19
2022-10-29T05:51:24.718Z,99898.81
2022-10-29T05:52:26.955Z,99903.41
2022-10-29T05:53:29.325Z,99897.44
2022-10-29T05:54:31.498Z,99900.03
2022-10-29T05:55:34.917Z,99899.69
2022-10-29T05:56:37.170Z,99897.94
2022-10-29T05:57:39.386Z,99900.00
2022-10-29T05:58:42.217Z,99899.16
2022-10-29T05:59:44.478Z,99894.00
2022-10-29T06:00:46.785Z,99896.75
2022-10-29T06:01:49.169Z,99888.81
2022-10-29T06:02:51.582Z,99902.63
2022-10-29T06:03:56.776Z,99888.16
2022-10-29T06:04:59.005Z,99887.38
2022-10-29T06:06:04.337Z,99884.56
2022-10-29T06:07:06.618Z,99889.66
2022-10-29T06:08:09.051Z,99888.72
2022-10-29T06:09:11.204Z,99892.22
2022-10-29T06:10:13.704Z,99890.13
2022-10-29T06:11:16.023Z,99884.84
2022-10-29T06:12:18.195Z,99885.53
2022-10-29T06:13:22.195Z,99890.75
2022-10-29T06:14:24.488Z,99884.56
2022-10-29T06:15:29.812Z,99888.94
2022-10-29T06:16:32.031Z,99897.56
2022-10-29T06:17:34.217Z,99892.13
2022-10-29T06:18:36.489Z,99893.84
2022-10-29T06:20:46.177Z,99895.66
2022-10-29T06:21:48.412Z,99896.47
2022-10-29T06:22:58.087Z,99892.88
2022-10-29T06:24:00.609Z,99898.66
2022-10-29T06:25:03.253Z,99889.84
2022-10-29T06:26:06.097Z,99895.53
2022-10-29T06:27:08.539Z,99893.41
2022-10-29T06:28:15.024Z,99889.13
2022-10-29T06:29:17.230Z,99884.34
2022-10-29T06:30:19.561Z,99889.25
2022-10-29T06:31:22.073Z,99896.97
2022-10-29T06:32:24.264Z,99895.94
2022-10-29T06:33:26.538Z,99892.13
2022-10-29T06:34:29.242Z,99889.44
2022-10-29T06:35:31.955Z,99892.22
2022-10-29T06:36:34.305Z,99887.28
2022-10-29T06:37:37.971Z,99891.56
2022-10-29T06:38:40.234Z,99896.25
2022-10-29T06:39:42.423Z,99889.63
2022-10-29T06:40:53.301Z,99897.41
2022-10-29T06:41:55.854Z,99902.38
2022-10-29T06:42:59.784Z,99908.13
2022-10-29T06:44:02.475Z,99904.31
2022-10-29T06:45:04.955Z,99898.06
2022-10-29T06:46:07.445Z,99907.25
2022-10-29T06:47:09.654Z,99902.66
2022-10-29T06:48:11.810Z,99901.00
2022-10-29T06:49:14.044Z,99906.84
2022-10-29T06:50:16.277Z,99905.78
2022-10-29T06:51:18.533Z,99906.00
2022-10-29T06:52:20.750Z,99908.13
2022-10-29T06:53:22.969Z,99905.78
2022-10-29T06:54:25.232Z,99906.66
2022-10-29T06:55:28.659Z,99905.72
2022-10-29T06:56:31.095Z,99899.75
2022-10-29T06:57:33.423Z,99899.50
2022-10-29T06:58:35.600Z,99898.75
2022-10-29T06:59:37.891Z,99906.22
2022-10-29T07:00:41.446Z,99893.28
2022-10-29T07:01:43.945Z,99904.94
2022-10-29T07:02:46.169Z,99906.41
2022-10-29T07:03:48.901Z,99909.03
2022-10-29T07:04:51.157Z,99905.47
2022-10-29T07:05:57.593Z,99913.06
2022-10-29T07:06:59.781Z,99909.25
2022-10-29T07:08:02.442Z,99909.72
2022-10-29T07:09:04.767Z,99906.97
2022-10-29T07:10:08.034Z,99911.56
2022-10-29T07:11:10.305Z,99909.06
2022-10-29T07:12:12.554Z,99914.88
2022-10-29T07:13:14.733Z,99910.53
2022-10-29T07:14:16.928Z,99913.63
2022-10-29T07:15:19.112Z,99921.94
2022-10-29T07:16:21.278Z,99919.66
2022-10-29T07:17:23.505Z,99914.63
2022-10-29T07:18:25.753Z,99916.94
2022-10-29T07:19:27.957Z,99917.00
2022-10-29T07:20:32.859Z,99907.59
2022-10-29T07:21:35.067Z,99915.38
2022-10-29T07:22:37.230Z,99918.72
2022-10-29T07:23:39.592Z,99908.44
2022-10-29T07:24:43.311Z,99913.38
2022-10-29T07:25:45.603Z,99914.31
2022-10-29T07:26:47.908Z,99918.03
2022-10-29T07:27:50.166Z,99912.81
2022-10-29T07:28:56.812Z,99914.06
2022-10-29T07:29:59.062Z,99912.97
2022-10-29T07:31:01.621Z,99918.19
2022-10-29T07:32:04.182Z,99910.34
2022-10-29T07:33:06.377Z,99913.88
2022-10-29T07:34:08.595Z,99913.94
2022-10-29T07:35:10.888Z,99915.91
2022-10-29T07:36:13.024Z,99908.03
2022-10-29T07:37:15.173Z,99918.41
2022-10-29T07:38:17.344Z,99914.31
2022-10-29T07:39:19.571Z,99914.84
2022-10-29T07:40:21.990Z,99919.88
2022-10-29T07:41:24.256Z,99909.69
2022-10-29T07:42:26.477Z,99918.94
2022-10-29T07:43:28.723Z,99921.03
2022-10-29T07:44:30.911Z,99920.19
2022-10-29T07:45:33.791Z,99918.72
2022-10-29T07:46:36.112Z,99919.97
2022-10-29T07:47:38.541Z,99930.13
2022-10-29T07:48:40.713Z,99919.41
2022-10-29T07:49:42.901Z,99926.84
2022-10-29T07:50:45.215Z,99929.16
2022-10-29T07:51:48.722Z,99926.09
2022-10-29T07:52:51.115Z,99931.06
2022-10-29T07:53:53.384Z,99932.75
2022-10-29T07:54:55.596Z,99929.78
2022-10-29T07:55:58.156Z,99941.28
2022-10-29T07:57:00.301Z,99934.53
2022-10-29T07:58:05.692Z,99932.28
2022-10-29T07:59:09.143Z,99935.41
2022-10-29T08:00:12.966Z,99941.16
2022-10-29T08:01:15.169Z,99934.63
2022-10-29T08:02:17.556Z,99931.97
2022-10-29T08:03:19.805Z,99939.81
2022-10-29T08:04:22.029Z,99938.56
2022-10-29T08:05:25.487Z,99935.91
2022-10-29T08:06:27.763Z,99942.31
2022-10-29T08:07:29.907Z,99928.69
2022-10-29T08:08:34.723Z,99940.91
2022-10-29T08:09:36.917Z,99938.56
2022-10-29T08:10:39.347Z,99939.59
2022-10-29T08:11:41.604Z,99938.94
2022-10-29T08:13:01.983Z,99932.59
2022-10-29T08:14:04.347Z,99942.63
2022-10-29T08:15:07.231Z,99936.91
2022-10-29T08:16:09.390Z,99942.41
2022-10-29T08:17:11.577Z,99948.25
2022-10-29T08:18:17.760Z,99945.84
2022-10-29T08:19:20.198Z,99943.06
2022-10-29T08:20:23.579Z,99942.34
2022-10-29T08:21:25.824Z,99947.59
2022-10-29T08:22:30.906Z,99943.13
2022-10-29T08:23:33.184Z,99950.59
2022-10-29T08:24:35.346Z,99944.38
2022-10-29T08:25:41.307Z,99943.50
2022-10-29T08:26:43.502Z,99939.50
2022-10-29T08:27:45.742Z,99952.44
2022-10-29T08:28:48.021Z,99948.94
2022-10-29T08:29:50.759Z,99941.25
2022-10-29T08:30:52.936Z,99954.31
2022-10-29T08:31:55.114Z,99956.41
2022-10-29T08:32:58.200Z,99958.44
2022-10-29T08:34:00.585Z,99952.72
2022-10-29T08:35:03.377Z,99956.78
2022-10-29T08:36:05.703Z,99956.88
2022-10-29T08:37:07.889Z,99955.28
2022-10-29T08:38:10.060Z,99964.81
2022-10-29T08:39:12.280Z,99964.47
2022-10-29T08:40:29.183Z,99955.59
2022-10-29T08:42:14.612Z,99968.53
2022-10-29T08:43:25.754Z,99963.78
2022-10-29T08:44:57.148Z,99970.63
2022-10-29T08:45:59.523Z,99971.78
2022-10-29T08:47:15.065Z,99963.47
2022-10-29T08:48:35.820Z,99970.84
2022-10-29T08:49:46.281Z,99970.06
2022-10-29T08:50:53.479Z,99976.75
2022-10-29T08:52:11.782Z,99968.13
2022-10-29T08:53:25.179Z,99972.06
2022-10-29T08:54:34.144Z,99974.88
2022-10-29T08:55:38.005Z,99968.22
2022-10-29T08:56:52.551Z,99980.78
2022-10-29T08:58:04.780Z,99970.78
2022-10-29T08:59:14.900Z,99977.56
2022-10-29T09:00:20.900Z,99974.16
2022-10-29T09:01:24.010Z,99974.81
2022-10-29T09:02:26.372Z,99965.16
2022-10-29T09:03:32.157Z,99975.38
2022-10-29T09:04:36.575Z,99970.13
2022-10-29T09:06:00.638Z,99968.75
2022-10-29T09:07:19.982Z,99974.53
2022-10-29T09:08:40.703Z,99971.16
2022-10-29T09:10:17.996Z,99978.09
2022-10-29T09:11:41.514Z,99974.31
2022-10-29T09:13:02.530Z,99975.53
2022-10-29T09:14:28.328Z,99981.38
2022-10-29T09:15:41.262Z,99983.28
2022-10-29T09:16:48.601Z,99977.94
2022-10-29T09:18:16.314Z,99976.41
2022-10-29T09:19:24.149Z,99979.09
2022-10-29T09:20:50.719Z,99974.72
2022-10-29T09:22:03.278Z,99975.84
2022-10-29T09:23:12.560Z,99973.59
2022-10-29T09:26:05.288Z,99961.19
2022-10-29T09:27:39.485Z,99979.13
2022-10-29T09:29:26.069Z,99964.44
2022-10-29T09:33:22.732Z,99967.28
2022-10-29T09:34:38.153Z,99970.81
2022-10-29T09:35:45.240Z,99966.22
2022-10-29T09:36:47.697Z,99968.25
2022-10-29T09:37:54.650Z,99968.59
2022-10-29T09:39:02.354Z,99965.06
2022-10-29T09:40:13.206Z,99959.69
2022-10-29T09:41:16.086Z,99970.59
2022-10-29T09:42:26.440Z,99975.25
2022-10-29T09:43:54.515Z,99971.47
2022-10-29T09:44:58.954Z,99969.75
2022-10-29T09:46:13.510Z,99967.19
2022-10-29T09:47:31.797Z,99977.06
2022-10-29T09:48:40.507Z,99958.47
2022-10-29T09:50:07.169Z,99960.28
2022-10-29T09:51:26.394Z,99955.03
2022-10-29T09:52:35.798Z,99959.56
2022-10-29T09:53:39.324Z,99973.00
2022-10-29T09:54:42.478Z,99966.38
2022-10-29T09:55:53.227Z,99972.22
2022-10-29T09:56:57.014Z,99967.66
2022-10-29T09:57:59.227Z,99965.81
2022-10-29T09:59:20.378Z,99963.94
2022-10-29T10:00:31.315Z,99966.66
2022-10-29T10:01:33.861Z,99961.66
2022-10-29T10:02:42.389Z,99961.75
2022-10-29T10:03:54.551Z,99952.22
2022-10-29T10:05:03.468Z,99958.19
2022-10-29T10:06:11.157Z,99962.56
2022-10-29T10:07:18.276Z,99963.25
2022-10-29T10:10:22.978Z,99957.91
2022-10-29T10:11:30.954Z,99960.16
2022-10-29T10:12:38.935Z,99956.19
2022-10-29T10:14:01.438Z,99964.06
2022-10-29T10:15:05.675Z,99958.78
2022-10-29T10:16:07.820Z,99959.59
2022-10-29T10:17:10.041Z,99959.78
2022-10-29T10:19:49.815Z,99966.84
2022-10-29T10:21:28.112Z,99959.31
2022-10-29T10:22:30.391Z,99953.84
2022-10-29T10:23:52.782Z,99953.38
2022-10-29T10:24:54.982Z,99964.00
2022-10-29T10:26:03.773Z,99959.56
2022-10-29T10:27:33.699Z,99956.44
2022-10-29T10:28:36.921Z,99957.63
2022-10-29T10:29:39.115Z,99958.56
2022-10-29T10:31:15.011Z,99952.19
2022-10-29T10:32:18.932Z,99954.50
2022-10-29T10:33:26.191Z,99943.75
2022-10-29T10:34:34.325Z,99942.00
2022-10-29T10:35:38.236Z,99941.97
2022-10-29T10:36:43.876Z,99945.38
2022-10-29T10:37:46.135Z,99941.03
2022-10-29T10:38:51.895Z,99942.00
2022-10-29T10:40:03.405Z,99940.25
2022-10-29T10:41:08.570Z,99940.81
2022-10-29T10:42:26.757Z,99936.09
2022-10-29T10:43:29.043Z,99930.69
2022-10-29T10:44:31.534Z,99937.31
2022-10-29T10:45:39.098Z,99934.94
2022-10-29T10:46:43.524Z,99928.84
2022-10-29T10:48:11.469Z,99933.41
2022-10-29T10:49:29.218Z,99922.72
2022-10-29T10:51:38.784Z,99926.09
2022-10-29T10:53:35.760Z,99913.44
2022-10-29T10:54:59.772Z,99916.97
2022-10-29T10:56:03.071Z,99912.75
2022-10-29T10:57:11.187Z,99910.06
2022-10-29T10:58:28.477Z,99906.31
2022-10-29T10:59:52.200Z,99907.13
2022-10-29T11:00:59.363Z,99902.78
2022-10-29T11:02:47.837Z,99904.97
2022-10-29T11:04:03.356Z,99900.22
2022-10-29T11:05:40.636Z,99899.53
2022-10-29T11:06:48.297Z,99901.56
2022-10-29T11:07:56.692Z,99897.31
2022-10-29T11:09:32.744Z,99901.31
2022-10-29T11:10:42.011Z,99898.66
2022-10-29T11:11:59.046Z,99898.69
2022-10-29T11:13:09.185Z,99892.88
2022-10-29T11:14:36.518Z,99888.31
2022-10-29T11:16:15.506Z,99893.16
2022-10-29T11:17:31.090Z,99890.63
2022-10-29T11:19:10.834Z,99885.16
2022-10-29T11:20:23.967Z,99877.94
2022-10-29T11:21:36.745Z,99876.38
2022-10-29T11:22:53.543Z,99877.34
2022-10-29T11:24:04.802Z,99876.19
2022-10-29T11:25:16.677Z,99875.59
2022-10-29T11:26:40.596Z,99877.16
2022-10-29T11:28:03.249Z,99870.56
2022-10-29T11:29:20.598Z,99872.03
2022-10-29T11:30:23.235Z,99866.19
2022-10-29T11:31:47.107Z,99864.78
2022-10-29T11:33:23.073Z,99869.84
2022-10-29T11:34:47.153Z,99869.09
2022-10-29T11:36:06.189Z,99867.38
2022-10-29T11:37:29.421Z,99861.19
2022-10-29T11:38:33.878Z,99863.97
2022-10-29T11:39:51.178Z,99860.69
2022-10-29T11:41:04.805Z,99858.75
2022-10-29T11:42:09.755Z,99857.91
2022-10-29T11:43:14.405Z,99864.72
2022-10-29T11:44:20.122Z,99858.03
2022-10-29T11:45:54.023Z,99846.50
2022-10-29T11:47:27.049Z,99851.22
2022-10-29T11:48:49.318Z,99851.22
2022-10-29T11:50:08.358Z,99846.59
2022-10-29T11:51:53.686Z,99851.41
2022-10-29T11:53:17.836Z,99840.19
2022-10-29T11:54:19.978Z,99844.41
2022-10-29T11:55:35.769Z,99837.19
2022-10-29T11:56:52.697Z,99840.47
2022-10-29T11:58:11.061Z,99839.75
2022-10-29T11:59:13.381Z,99838.97
2022-10-29T12:00:21.368Z,99836.38
2022-10-29T12:01:34.285Z,99828.44
2022-10-29T12:03:04.136Z,99836.69
2022-10-29T12:04:23.109Z,99828.72
2022-10-29T12:05:44.633Z,99824.72
2022-10-29T12:07:15.414Z,99820.91
2022-10-29T12:08:41.229Z,99810.91
2022-10-29T12:09:58.739Z,99827.22
2022-10-29T12:11:55.528Z,99818.34
2022-10-29T12:13:28.300Z,99810.88
2022-10-29T12:14:54.154Z,99813.97
2022-10-29T12:16:09.546Z,99802.47
2022-10-29T12:17:32.550Z,99812.88
2022-10-29T12:19:15.756Z,99797.25
2022-10-29T12:20:36.939Z,99800.72
2022-10-29T12:21:58.364Z,99796.25
2022-10-29T12:23:11.968Z,99784.34
2022-10-29T12:24:32.775Z,99796.75
2022-10-29T12:26:07.904Z,99786.91
2022-10-29T12:27:27.109Z,99785.41
2022-10-29T12:28:45.036Z,99787.53
2022-10-29T12:30:06.010Z,99788.56
2022-10-29T12:31:40.229Z,99776.22
2022-10-29T12:33:10.195Z,99777.69
2022-10-29T12:34:22.567Z,99774.00
2022-10-29T12:35:37.317Z,99784.16
2022-10-29T12:37:13.285Z,99774.72
2022-10-29T12:38:41.880Z,99766.59
2022-10-29T12:39:51.474Z,99768.13
2022-10-29T12:41:01.258Z,99760.84
2022-10-29T12:42:22.855Z,99770.03
2022-10-29T12:43:29.544Z,99766.16
2022-10-29T12:44:51.607Z,99769.31
2022-10-29T12:46:21.315Z,99763.72
2022-10-29T12:47:37.460Z,99759.16
2022-10-29T12:48:51.476Z,99762.72
2022-10-29T12:50:26.005Z,99765.69
2022-10-29T12:51:53.256Z,99760.88
2022-10-29T12:53:06.931Z,99758.69
2022-10-29T12:54:15.255Z,99750.56
2022-10-29T12:55:18.096Z,99757.38
2022-10-29T12:56:20.993Z,99755.13
2022-10-29T12:57:32.457Z,99759.84
2022-10-29T12:58:56.991Z,99761.38
2022-10-29T13:00:45.786Z,99754.44
2022-10-29T13:04:03.300Z,99749.75
2022-10-29T13:05:11.402Z,99748.44
2022-10-29T13:06:52.439Z,99751.38
2022-10-29T13:07:57.775Z,99741.66
2022-10-29T13:09:19.174Z,99748.56
2022-10-29T13:10:24.551Z,99743.09
2022-10-29T13:11:43.520Z,99735.91
2022-10-29T13:13:18.217Z,99741.25
2022-10-29T13:14:25.079Z,99739.19
2022-10-29T13:15:49.876Z,99738.91
2022-10-29T13:16:53.121Z,99739.63
2022-10-29T13:17:59.713Z,99744.28
2022-10-29T13:19:12.832Z,99729.91
2022-10-29T13:20:21.436Z,99736.25
2022-10-29T13:21:58.174Z,99729.47
2022-10-29T13:23:03.920Z,99742.44
2022-10-29T13:24:16.481Z,99735.09
2022-10-29T13:25:33.573Z,99731.00
2022-10-29T13:27:00.706Z,99733.69
2022-10-29T13:28:08.659Z,99737.19
2022-10-29T13:29:10.898Z,99728.88
2022-10-29T13:30:25.610Z,99720.44
2022-10-29T13:31:27.886Z,99734.41
2022-10-29T13:32:37.771Z,99723.91
2022-10-29T13:33:39.967Z,99726.72
2022-10-29T13:34:55.499Z,99725.91
2022-10-29T13:36:02.001Z,99727.84
2022-10-29T13:37:36.081Z,99725.16
2022-10-29T13:38:58.408Z,99731.69
2022-10-29T13:40:26.242Z,99720.44
2022-10-29T13:41:39.874Z,99726.22